sensor_id;sensor_type;location;lat;lon;timestamp;P1;durP1;ratioP1;P2;durP2;ratioP2
9964;SDS011;5023;53.554;9.964;2023-10-13T00:01:40;6.20;;;4.45;;
9964;SDS011;5023;53.554;9.964;2023-10-13T00:06:43;7.68;;;4.60;;
9964;SDS011;5023;53.554;9.964;2023-10-13T00:11:45;8.88;;;5.03;;
9964;SDS011;5023;53.554;9.964;2023-10-13T00:16:47;8.27;;;4.75;;
9964;SDS011;5023;53.554;9.964;2023-10-13T00:22:06;8.98;;;4.50;;
9964;SDS011;5023;53.554;9.964;2023-10-13T00:27:10;9.65;;;5.28;;
9964;SDS011;5023;53.554;9.964;2023-10-13T00:32:27;12.18;;;4.65;;
9964;SDS011;5023;53.554;9.964;2023-10-13T00:37:33;9.82;;;5.70;;
9964;SDS011;5023;53.554;9.964;2023-10-13T00:42:42;14.65;;;6.43;;
9964;SDS011;5023;53.554;9.964;2023-10-13T00:47:51;9.52;;;5.93;;
9964;SDS011;5023;53.554;9.964;2023-10-13T00:52:58;10.35;;;6.15;;
9964;SDS011;5023;53.554;9.964;2023-10-13T00:58:01;13.00;;;6.88;;
9964;SDS011;5023;53.554;9.964;2023-10-13T01:03:08;27.35;;;16.20;;
9964;SDS011;5023;53.554;9.964;2023-10-13T01:08:13;18.27;;;10.27;;
9964;SDS011;5023;53.554;9.964;2023-10-13T01:13:15;12.52;;;7.55;;
9964;SDS011;5023;53.554;9.964;2023-10-13T01:18:17;14.80;;;7.50;;
9964;SDS011;5023;53.554;9.964;2023-10-13T01:23:21;15.18;;;8.30;;
9964;SDS011;5023;53.554;9.964;2023-10-13T01:28:28;16.65;;;8.35;;
9964;SDS011;5023;53.554;9.964;2023-10-13T01:33:30;13.55;;;7.68;;
9964;SDS011;5023;53.554;9.964;2023-10-13T01:38:36;13.88;;;8.23;;
9964;SDS011;5023;53.554;9.964;2023-10-13T01:43:38;14.25;;;7.95;;
9964;SDS011;5023;53.554;9.964;2023-10-13T01:48:40;15.82;;;8.82;;
9964;SDS011;5023;53.554;9.964;2023-10-13T01:53:45;15.77;;;7.75;;
9964;SDS011;5023;53.554;9.964;2023-10-13T01:58:53;17.58;;;8.45;;
9964;SDS011;5023;53.554;9.964;2023-10-13T02:03:55;16.10;;;9.27;;
9964;SDS011;5023;53.554;9.964;2023-10-13T02:09:06;16.33;;;9.35;;
9964;SDS011;5023;53.554;9.964;2023-10-13T02:14:13;16.42;;;9.65;;
9964;SDS011;5023;53.554;9.964;2023-10-13T02:19:16;13.82;;;8.35;;
9964;SDS011;5023;53.554;9.964;2023-10-13T02:24:21;16.70;;;8.60;;
9964;SDS011;5023;53.554;9.964;2023-10-13T02:29:29;17.70;;;9.98;;
9964;SDS011;5023;53.554;9.964;2023-10-13T02:34:39;15.38;;;10.82;;
9964;SDS011;5023;53.554;9.964;2023-10-13T02:39:45;18.65;;;11.63;;
9964;SDS011;5023;53.554;9.964;2023-10-13T02:44:47;22.63;;;11.02;;
9964;SDS011;5023;53.554;9.964;2023-10-13T02:49:49;16.25;;;10.98;;
9964;SDS011;5023;53.554;9.964;2023-10-13T02:54:52;19.45;;;11.70;;
9964;SDS011;5023;53.554;9.964;2023-10-13T02:59:54;21.08;;;12.23;;
9964;SDS011;5023;53.554;9.964;2023-10-13T03:05:12;19.45;;;12.13;;
9964;SDS011;5023;53.554;9.964;2023-10-13T03:10:17;19.08;;;11.57;;
9964;SDS011;5023;53.554;9.964;2023-10-13T03:15:21;20.15;;;12.40;;
9964;SDS011;5023;53.554;9.964;2023-10-13T03:20:30;20.23;;;13.35;;
9964;SDS011;5023;53.554;9.964;2023-10-13T03:25:36;22.88;;;13.90;;
9964;SDS011;5023;53.554;9.964;2023-10-13T03:30:42;25.35;;;13.38;;
9964;SDS011;5023;53.554;9.964;2023-10-13T03:35:44;21.38;;;12.73;;
9964;SDS011;5023;53.554;9.964;2023-10-13T03:40:55;15.18;;;11.85;;
9964;SDS011;5023;53.554;9.964;2023-10-13T03:46:07;14.10;;;10.95;;
9964;SDS011;5023;53.554;9.964;2023-10-13T03:51:09;13.20;;;10.98;;
9964;SDS011;5023;53.554;9.964;2023-10-13T03:56:16;13.73;;;10.73;;
9964;SDS011;5023;53.554;9.964;2023-10-13T04:01:26;13.77;;;10.48;;
9964;SDS011;5023;53.554;9.964;2023-10-13T04:06:31;11.68;;;9.60;;
9964;SDS011;5023;53.554;9.964;2023-10-13T04:11:52;11.63;;;9.73;;
9964;SDS011;5023;53.554;9.964;2023-10-13T04:17:08;13.50;;;10.18;;
9964;SDS011;5023;53.554;9.964;2023-10-13T04:22:14;11.75;;;10.02;;
9964;SDS011;5023;53.554;9.964;2023-10-13T04:27:22;13.43;;;10.20;;
9964;SDS011;5023;53.554;9.964;2023-10-13T04:32:43;11.82;;;9.82;;
9964;SDS011;5023;53.554;9.964;2023-10-13T04:38:06;15.63;;;11.20;;
9964;SDS011;5023;53.554;9.964;2023-10-13T04:43:21;14.65;;;11.45;;
9964;SDS011;5023;53.554;9.964;2023-10-13T04:48:36;16.17;;;12.52;;
9964;SDS011;5023;53.554;9.964;2023-10-13T04:53:39;16.80;;;11.90;;
9964;SDS011;5023;53.554;9.964;2023-10-13T04:59:01;26.15;;;19.02;;
9964;SDS011;5023;53.554;9.964;2023-10-13T05:04:35;27.23;;;22.42;;
9964;SDS011;5023;53.554;9.964;2023-10-13T05:10:00;37.15;;;27.90;;
9964;SDS011;5023;53.554;9.964;2023-10-13T05:15:20;37.28;;;26.67;;
9964;SDS011;5023;53.554;9.964;2023-10-13T05:20:39;33.53;;;25.80;;
9964;SDS011;5023;53.554;9.964;2023-10-13T05:26:01;31.90;;;25.33;;
9964;SDS011;5023;53.554;9.964;2023-10-13T05:31:21;29.98;;;25.45;;
9964;SDS011;5023;53.554;9.964;2023-10-13T05:36:41;30.27;;;25.63;;
9964;SDS011;5023;53.554;9.964;2023-10-13T05:42:00;31.92;;;24.45;;
9964;SDS011;5023;53.554;9.964;2023-10-13T05:47:21;30.25;;;24.63;;
9964;SDS011;5023;53.554;9.964;2023-10-13T05:52:41;30.20;;;24.80;;
9964;SDS011;5023;53.554;9.964;2023-10-13T05:58:01;29.02;;;25.23;;
9964;SDS011;5023;53.554;9.964;2023-10-13T06:03:21;30.88;;;25.40;;
9964;SDS011;5023;53.554;9.964;2023-10-13T06:08:41;31.13;;;25.65;;
9964;SDS011;5023;53.554;9.964;2023-10-13T06:14:00;32.17;;;24.95;;
9964;SDS011;5023;53.554;9.964;2023-10-13T06:19:21;29.45;;;25.48;;
9964;SDS011;5023;53.554;9.964;2023-10-13T06:24:40;29.52;;;24.88;;
9964;SDS011;5023;53.554;9.964;2023-10-13T06:30:00;28.80;;;25.52;;
9964;SDS011;5023;53.554;9.964;2023-10-13T06:35:05;28.88;;;25.75;;
9964;SDS011;5023;53.554;9.964;2023-10-13T06:40:09;28.10;;;25.15;;
9964;SDS011;5023;53.554;9.964;2023-10-13T06:45:22;34.95;;;25.83;;
9964;SDS011;5023;53.554;9.964;2023-10-13T06:50:29;43.05;;;27.58;;
9964;SDS011;5023;53.554;9.964;2023-10-13T06:55:39;34.63;;;25.85;;
9964;SDS011;5023;53.554;9.964;2023-10-13T07:00:41;28.55;;;25.60;;
9964;SDS011;5023;53.554;9.964;2023-10-13T07:05:54;29.63;;;26.27;;
9964;SDS011;5023;53.554;9.964;2023-10-13T07:10:59;30.05;;;25.30;;
9964;SDS011;5023;53.554;9.964;2023-10-13T07:16:05;30.33;;;24.40;;
9964;SDS011;5023;53.554;9.964;2023-10-13T07:21:09;26.77;;;23.85;;
9964;SDS011;5023;53.554;9.964;2023-10-13T07:26:11;25.95;;;23.25;;
9964;SDS011;5023;53.554;9.964;2023-10-13T07:31:13;24.88;;;22.27;;
9964;SDS011;5023;53.554;9.964;2023-10-13T07:36:17;26.63;;;22.55;;
9964;SDS011;5023;53.554;9.964;2023-10-13T07:41:28;24.95;;;22.42;;
9964;SDS011;5023;53.554;9.964;2023-10-13T07:46:31;22.20;;;19.40;;
9964;SDS011;5023;53.554;9.964;2023-10-13T07:51:36;22.25;;;19.88;;
9964;SDS011;5023;53.554;9.964;2023-10-13T07:56:44;21.13;;;19.08;;
9964;SDS011;5023;53.554;9.964;2023-10-13T08:01:46;19.25;;;17.25;;
9964;SDS011;5023;53.554;9.964;2023-10-13T08:06:52;17.23;;;15.32;;
9964;SDS011;5023;53.554;9.964;2023-10-13T08:12:02;16.58;;;14.98;;
9964;SDS011;5023;53.554;9.964;2023-10-13T08:17:10;20.23;;;14.02;;
9964;SDS011;5023;53.554;9.964;2023-10-13T08:22:14;15.43;;;13.88;;
9964;SDS011;5023;53.554;9.964;2023-10-13T08:27:24;51.40;;;46.22;;
9964;SDS011;5023;53.554;9.964;2023-10-13T08:32:37;30.10;;;27.05;;
9964;SDS011;5023;53.554;9.964;2023-10-13T08:37:48;27.45;;;24.65;;
9964;SDS011;5023;53.554;9.964;2023-10-13T08:42:59;14.63;;;13.20;;
9964;SDS011;5023;53.554;9.964;2023-10-13T08:48:13;12.70;;;11.50;;
9964;SDS011;5023;53.554;9.964;2023-10-13T08:53:17;11.98;;;10.88;;
9964;SDS011;5023;53.554;9.964;2023-10-13T08:58:27;10.43;;;9.52;;
9964;SDS011;5023;53.554;9.964;2023-10-13T09:03:50;9.85;;;8.95;;
9964;SDS011;5023;53.554;9.964;2023-10-13T09:09:03;8.90;;;8.15;;
9964;SDS011;5023;53.554;9.964;2023-10-13T09:14:12;8.65;;;7.75;;
9964;SDS011;5023;53.554;9.964;2023-10-13T09:19:33;8.02;;;7.22;;
9964;SDS011;5023;53.554;9.964;2023-10-13T09:24:49;7.63;;;6.93;;
9964;SDS011;5023;53.554;9.964;2023-10-13T09:29:55;8.13;;;7.32;;
9964;SDS011;5023;53.554;9.964;2023-10-13T09:34:59;9.73;;;7.90;;
9964;SDS011;5023;53.554;9.964;2023-10-13T09:40:04;8.82;;;7.30;;
9964;SDS011;5023;53.554;9.964;2023-10-13T09:45:26;8.15;;;6.88;;
9964;SDS011;5023;53.554;9.964;2023-10-13T09:50:37;11.10;;;6.70;;
9964;SDS011;5023;53.554;9.964;2023-10-13T09:55:46;9.82;;;7.18;;
9964;SDS011;5023;53.554;9.964;2023-10-13T10:00:51;7.40;;;6.15;;
9964;SDS011;5023;53.554;9.964;2023-10-13T10:06:06;10.75;;;6.53;;
9964;SDS011;5023;53.554;9.964;2023-10-13T10:11:19;9.05;;;7.07;;
9964;SDS011;5023;53.554;9.964;2023-10-13T10:16:43;8.48;;;6.35;;
9964;SDS011;5023;53.554;9.964;2023-10-13T10:22:02;10.52;;;6.60;;
9964;SDS011;5023;53.554;9.964;2023-10-13T10:27:24;15.02;;;7.47;;
9964;SDS011;5023;53.554;9.964;2023-10-13T10:32:33;8.93;;;6.95;;
9964;SDS011;5023;53.554;9.964;2023-10-13T10:37:36;9.13;;;8.20;;
9964;SDS011;5023;53.554;9.964;2023-10-13T10:42:51;8.95;;;7.20;;
9964;SDS011;5023;53.554;9.964;2023-10-13T10:47:53;10.15;;;7.10;;
9964;SDS011;5023;53.554;9.964;2023-10-13T10:52:58;10.82;;;7.65;;
9964;SDS011;5023;53.554;9.964;2023-10-13T10:58:01;10.00;;;7.22;;
9964;SDS011;5023;53.554;9.964;2023-10-13T11:03:06;10.75;;;8.00;;
9964;SDS011;5023;53.554;9.964;2023-10-13T11:08:20;8.77;;;7.03;;
9964;SDS011;5023;53.554;9.964;2023-10-13T11:13:38;8.52;;;6.72;;
9964;SDS011;5023;53.554;9.964;2023-10-13T11:18:59;9.27;;;8.20;;
9964;SDS011;5023;53.554;9.964;2023-10-13T11:24:02;10.05;;;7.75;;
9964;SDS011;5023;53.554;9.964;2023-10-13T11:29:10;10.40;;;7.63;;
9964;SDS011;5023;53.554;9.964;2023-10-13T11:34:12;13.25;;;7.03;;
9964;SDS011;5023;53.554;9.964;2023-10-13T11:39:17;9.18;;;7.07;;
9964;SDS011;5023;53.554;9.964;2023-10-13T11:44:31;9.50;;;7.20;;
9964;SDS011;5023;53.554;9.964;2023-10-13T11:49:43;12.32;;;7.15;;
9964;SDS011;5023;53.554;9.964;2023-10-13T11:54:45;11.55;;;6.82;;
9964;SDS011;5023;53.554;9.964;2023-10-13T11:59:49;9.45;;;6.70;;
9964;SDS011;5023;53.554;9.964;2023-10-13T12:04:56;8.38;;;6.60;;
9964;SDS011;5023;53.554;9.964;2023-10-13T12:09:59;10.63;;;5.93;;
9964;SDS011;5023;53.554;9.964;2023-10-13T12:15:08;9.60;;;6.53;;
9964;SDS011;5023;53.554;9.964;2023-10-13T12:20:26;9.73;;;5.80;;
9964;SDS011;5023;53.554;9.964;2023-10-13T12:25:34;9.65;;;5.90;;
9964;SDS011;5023;53.554;9.964;2023-10-13T12:31:02;13.07;;;9.45;;
9964;SDS011;5023;53.554;9.964;2023-10-13T12:36:08;10.88;;;5.93;;
9964;SDS011;5023;53.554;9.964;2023-10-13T12:41:27;9.88;;;5.40;;
9964;SDS011;5023;53.554;9.964;2023-10-13T12:46:48;10.95;;;5.85;;
9964;SDS011;5023;53.554;9.964;2023-10-13T12:52:07;10.50;;;5.68;;
9964;SDS011;5023;53.554;9.964;2023-10-13T12:57:16;9.50;;;5.97;;
9964;SDS011;5023;53.554;9.964;2023-10-13T13:02:19;8.95;;;5.35;;
9964;SDS011;5023;53.554;9.964;2023-10-13T13:07:21;8.00;;;5.82;;
9964;SDS011;5023;53.554;9.964;2023-10-13T13:12:29;12.48;;;6.38;;
9964;SDS011;5023;53.554;9.964;2023-10-13T13:17:32;10.40;;;5.93;;
9964;SDS011;5023;53.554;9.964;2023-10-13T13:22:34;9.25;;;6.05;;
9964;SDS011;5023;53.554;9.964;2023-10-13T13:27:36;10.93;;;6.80;;
9964;SDS011;5023;53.554;9.964;2023-10-13T13:32:43;9.48;;;5.95;;
9964;SDS011;5023;53.554;9.964;2023-10-13T13:37:46;9.75;;;5.53;;
9964;SDS011;5023;53.554;9.964;2023-10-13T13:42:47;10.43;;;6.00;;
9964;SDS011;5023;53.554;9.964;2023-10-13T13:47:51;11.98;;;6.30;;
9964;SDS011;5023;53.554;9.964;2023-10-13T13:52:53;10.40;;;6.90;;
9964;SDS011;5023;53.554;9.964;2023-10-13T13:57:56;10.00;;;6.00;;
9964;SDS011;5023;53.554;9.964;2023-10-13T14:02:59;8.65;;;6.13;;
9964;SDS011;5023;53.554;9.964;2023-10-13T14:08:01;13.25;;;7.07;;
9964;SDS011;5023;53.554;9.964;2023-10-13T14:13:11;13.05;;;7.32;;
9964;SDS011;5023;53.554;9.964;2023-10-13T14:18:15;13.32;;;6.47;;
9964;SDS011;5023;53.554;9.964;2023-10-13T14:23:17;11.15;;;7.03;;
9964;SDS011;5023;53.554;9.964;2023-10-13T14:28:22;12.30;;;7.68;;
9964;SDS011;5023;53.554;9.964;2023-10-13T14:33:34;14.90;;;7.28;;
9964;SDS011;5023;53.554;9.964;2023-10-13T14:38:37;12.20;;;7.35;;
9964;SDS011;5023;53.554;9.964;2023-10-13T14:43:40;12.40;;;6.90;;
9964;SDS011;5023;53.554;9.964;2023-10-13T14:48:51;12.15;;;7.15;;
9964;SDS011;5023;53.554;9.964;2023-10-13T14:53:53;11.95;;;7.22;;
9964;SDS011;5023;53.554;9.964;2023-10-13T14:58:56;11.18;;;7.47;;
9964;SDS011;5023;53.554;9.964;2023-10-13T15:03:59;14.05;;;7.75;;
9964;SDS011;5023;53.554;9.964;2023-10-13T15:09:01;12.88;;;8.02;;
9964;SDS011;5023;53.554;9.964;2023-10-13T15:14:04;22.13;;;8.75;;
9964;SDS011;5023;53.554;9.964;2023-10-13T15:19:09;11.35;;;7.85;;
9964;SDS011;5023;53.554;9.964;2023-10-13T15:24:12;15.75;;;7.68;;
9964;SDS011;5023;53.554;9.964;2023-10-13T15:29:15;12.40;;;7.18;;
9964;SDS011;5023;53.554;9.964;2023-10-13T15:34:19;13.80;;;7.57;;
9964;SDS011;5023;53.554;9.964;2023-10-13T15:39:21;11.35;;;7.55;;
9964;SDS011;5023;53.554;9.964;2023-10-13T15:44:25;17.40;;;8.57;;
9964;SDS011;5023;53.554;9.964;2023-10-13T15:49:31;12.20;;;7.38;;
9964;SDS011;5023;53.554;9.964;2023-10-13T15:54:34;17.63;;;8.13;;
9964;SDS011;5023;53.554;9.964;2023-10-13T15:59:36;15.90;;;8.13;;
9964;SDS011;5023;53.554;9.964;2023-10-13T16:04:39;15.80;;;9.73;;
9964;SDS011;5023;53.554;9.964;2023-10-13T16:09:41;11.25;;;7.88;;
9964;SDS011;5023;53.554;9.964;2023-10-13T16:14:44;14.90;;;8.13;;
9964;SDS011;5023;53.554;9.964;2023-10-13T16:19:47;13.18;;;8.00;;
9964;SDS011;5023;53.554;9.964;2023-10-13T16:24:49;14.80;;;6.18;;
9964;SDS011;5023;53.554;9.964;2023-10-13T16:29:51;11.93;;;6.82;;
9964;SDS011;5023;53.554;9.964;2023-10-13T16:34:56;16.13;;;8.30;;
9964;SDS011;5023;53.554;9.964;2023-10-13T16:39:58;12.57;;;6.80;;
9964;SDS011;5023;53.554;9.964;2023-10-13T16:45:05;11.80;;;6.32;;
9964;SDS011;5023;53.554;9.964;2023-10-13T16:50:16;11.02;;;6.78;;
9964;SDS011;5023;53.554;9.964;2023-10-13T16:55:19;9.57;;;6.40;;
9964;SDS011;5023;53.554;9.964;2023-10-13T17:00:21;11.88;;;5.95;;
9964;SDS011;5023;53.554;9.964;2023-10-13T17:05:27;9.40;;;5.53;;
9964;SDS011;5023;53.554;9.964;2023-10-13T17:10:28;10.10;;;5.78;;
9964;SDS011;5023;53.554;9.964;2023-10-13T17:15:31;12.57;;;5.82;;
9964;SDS011;5023;53.554;9.964;2023-10-13T17:20:36;11.38;;;7.25;;
9964;SDS011;5023;53.554;9.964;2023-10-13T17:25:38;11.95;;;5.25;;
9964;SDS011;5023;53.554;9.964;2023-10-13T17:30:41;10.85;;;6.25;;
9964;SDS011;5023;53.554;9.964;2023-10-13T17:35:46;12.02;;;6.65;;
9964;SDS011;5023;53.554;9.964;2023-10-13T17:40:49;10.57;;;6.15;;
9964;SDS011;5023;53.554;9.964;2023-10-13T17:45:51;7.63;;;4.97;;
9964;SDS011;5023;53.554;9.964;2023-10-13T17:50:54;7.45;;;5.28;;
9964;SDS011;5023;53.554;9.964;2023-10-13T17:55:56;7.25;;;4.75;;
9964;SDS011;5023;53.554;9.964;2023-10-13T18:01:04;11.60;;;6.18;;
9964;SDS011;5023;53.554;9.964;2023-10-13T18:06:08;7.25;;;5.10;;
9964;SDS011;5023;53.554;9.964;2023-10-13T18:11:10;7.82;;;5.15;;
9964;SDS011;5023;53.554;9.964;2023-10-13T18:16:13;7.90;;;4.65;;
9964;SDS011;5023;53.554;9.964;2023-10-13T18:21:17;11.20;;;4.88;;
9964;SDS011;5023;53.554;9.964;2023-10-13T18:26:19;13.48;;;5.70;;
9964;SDS011;5023;53.554;9.964;2023-10-13T18:31:21;9.57;;;5.45;;
9964;SDS011;5023;53.554;9.964;2023-10-13T18:36:24;8.48;;;5.22;;
9964;SDS011;5023;53.554;9.964;2023-10-13T18:41:28;11.10;;;5.53;;
9964;SDS011;5023;53.554;9.964;2023-10-13T18:46:30;7.55;;;5.85;;
9964;SDS011;5023;53.554;9.964;2023-10-13T18:51:33;8.68;;;5.47;;
9964;SDS011;5023;53.554;9.964;2023-10-13T18:56:36;10.02;;;6.03;;
9964;SDS011;5023;53.554;9.964;2023-10-13T19:01:42;9.30;;;5.28;;
9964;SDS011;5023;53.554;9.964;2023-10-13T19:06:47;7.18;;;5.78;;
9964;SDS011;5023;53.554;9.964;2023-10-13T19:11:51;7.20;;;5.45;;
9964;SDS011;5023;53.554;9.964;2023-10-13T19:16:55;11.73;;;6.32;;
9964;SDS011;5023;53.554;9.964;2023-10-13T19:21:59;9.50;;;6.40;;
9964;SDS011;5023;53.554;9.964;2023-10-13T19:27:01;16.02;;;7.28;;
9964;SDS011;5023;53.554;9.964;2023-10-13T19:32:03;10.75;;;7.75;;
9964;SDS011;5023;53.554;9.964;2023-10-13T19:37:09;11.52;;;6.57;;
9964;SDS011;5023;53.554;9.964;2023-10-13T19:42:13;11.60;;;6.85;;
9964;SDS011;5023;53.554;9.964;2023-10-13T19:47:20;14.00;;;7.55;;
9964;SDS011;5023;53.554;9.964;2023-10-13T19:52:26;13.80;;;7.15;;
9964;SDS011;5023;53.554;9.964;2023-10-13T19:57:27;15.02;;;7.50;;
9964;SDS011;5023;53.554;9.964;2023-10-13T20:02:35;13.95;;;7.28;;
9964;SDS011;5023;53.554;9.964;2023-10-13T20:07:40;14.55;;;7.07;;
9964;SDS011;5023;53.554;9.964;2023-10-13T20:12:42;15.32;;;8.40;;
9964;SDS011;5023;53.554;9.964;2023-10-13T20:17:44;14.38;;;7.15;;
9964;SDS011;5023;53.554;9.964;2023-10-13T20:22:48;10.38;;;6.35;;
9964;SDS011;5023;53.554;9.964;2023-10-13T20:27:49;14.43;;;6.85;;
9964;SDS011;5023;53.554;9.964;2023-10-13T20:32:52;12.65;;;6.43;;
9964;SDS011;5023;53.554;9.964;2023-10-13T20:37:56;9.57;;;5.97;;
9964;SDS011;5023;53.554;9.964;2023-10-13T20:42:57;10.85;;;6.45;;
9964;SDS011;5023;53.554;9.964;2023-10-13T20:48:01;9.38;;;5.82;;
9964;SDS011;5023;53.554;9.964;2023-10-13T20:53:04;8.15;;;5.68;;
9964;SDS011;5023;53.554;9.964;2023-10-13T20:58:08;12.18;;;6.15;;
9964;SDS011;5023;53.554;9.964;2023-10-13T21:03:10;7.75;;;5.35;;
9964;SDS011;5023;53.554;9.964;2023-10-13T21:08:16;9.30;;;5.88;;
9964;SDS011;5023;53.554;9.964;2023-10-13T21:13:18;12.43;;;7.38;;
9964;SDS011;5023;53.554;9.964;2023-10-13T21:18:20;10.15;;;6.63;;
9964;SDS011;5023;53.554;9.964;2023-10-13T21:23:23;9.60;;;6.53;;
9964;SDS011;5023;53.554;9.964;2023-10-13T21:28:25;9.10;;;6.43;;
9964;SDS011;5023;53.554;9.964;2023-10-13T21:33:27;10.48;;;9.27;;
9964;SDS011;5023;53.554;9.964;2023-10-13T21:38:32;8.50;;;6.82;;
9964;SDS011;5023;53.554;9.964;2023-10-13T21:43:33;8.90;;;6.45;;
9964;SDS011;5023;53.554;9.964;2023-10-13T21:48:36;12.40;;;8.07;;
9964;SDS011;5023;53.554;9.964;2023-10-13T21:53:39;8.15;;;6.90;;
9964;SDS011;5023;53.554;9.964;2023-10-13T21:58:41;11.57;;;6.93;;
9964;SDS011;5023;53.554;9.964;2023-10-13T22:03:45;7.40;;;4.60;;
9964;SDS011;5023;53.554;9.964;2023-10-13T22:08:48;6.47;;;5.15;;
9964;SDS011;5023;53.554;9.964;2023-10-13T22:13:51;7.88;;;6.15;;
9964;SDS011;5023;53.554;9.964;2023-10-13T22:18:53;10.02;;;6.93;;
9964;SDS011;5023;53.554;9.964;2023-10-13T22:23:58;8.38;;;6.78;;
9964;SDS011;5023;53.554;9.964;2023-10-13T22:29:01;9.18;;;6.90;;
9964;SDS011;5023;53.554;9.964;2023-10-13T22:34:06;9.45;;;7.25;;
9964;SDS011;5023;53.554;9.964;2023-10-13T22:39:10;12.05;;;7.13;;
9964;SDS011;5023;53.554;9.964;2023-10-13T22:44:15;11.15;;;7.63;;
9964;SDS011;5023;53.554;9.964;2023-10-13T22:49:19;11.98;;;7.82;;
9964;SDS011;5023;53.554;9.964;2023-10-13T22:54:23;11.27;;;8.45;;
9964;SDS011;5023;53.554;9.964;2023-10-13T22:59:29;9.88;;;7.40;;
9964;SDS011;5023;53.554;9.964;2023-10-13T23:04:31;12.23;;;7.97;;
9964;SDS011;5023;53.554;9.964;2023-10-13T23:09:34;12.95;;;9.05;;
9964;SDS011;5023;53.554;9.964;2023-10-13T23:14:47;15.23;;;9.85;;
9964;SDS011;5023;53.554;9.964;2023-10-13T23:19:50;17.85;;;14.25;;
9964;SDS011;5023;53.554;9.964;2023-10-13T23:24:53;16.45;;;11.38;;
9964;SDS011;5023;53.554;9.964;2023-10-13T23:29:56;14.85;;;10.15;;
9964;SDS011;5023;53.554;9.964;2023-10-13T23:34:58;15.30;;;10.57;;
9964;SDS011;5023;53.554;9.964;2023-10-13T23:40:02;15.77;;;11.52;;
9964;SDS011;5023;53.554;9.964;2023-10-13T23:45:13;16.83;;;10.80;;
9964;SDS011;5023;53.554;9.964;2023-10-13T23:50:19;14.38;;;9.38;;
9964;SDS011;5023;53.554;9.964;2023-10-13T23:55:29;17.15;;;11.90;;
